Time;durP1;ratioP1;P1;durP2;ratioP2;P2;SDS_P1;SDS_P2;PMS_P1;PMS_P2;Temp;Humidity;BMP_temperature;BMP_pressure;BME280_temperature;BME280_humidity;BME280_pressure;Samples;Min_cycle;Max_cycle;Signal;HPM_P1;HPM_P2
2022/11/08 00:01:40;;;;;;;4.90;2.20;;;13.50;88.90;;;13.93;54.64;98662.78;4959579;28;113749;-76
2022/11/08 00:04:10;;;;;;;3.80;2.70;;;13.50;88.90;;;13.92;54.81;98675.06;4955365;28;124393;-76
2022/11/08 00:14:54;;;;;;;4.87;2.70;;;13.40;88.80;;;13.86;54.91;98668.06;4985724;28;124661;-75
2022/11/08 00:17:24;;;;;;;3.10;2.43;;;13.40;88.80;;;13.85;54.74;98666.44;4998597;28;122814;-76
2022/11/08 00:19:51;;;;;;;5.87;2.50;;;13.40;88.80;;;13.85;54.78;98666.44;4966379;28;116073;-77
2022/11/08 00:22:18;;;;;;;5.20;2.43;;;13.40;88.80;;;13.84;54.75;98665.63;4951772;28;115319;-77
2022/11/08 00:24:45;;;;;;;6.07;3.00;;;13.40;88.80;;;13.82;54.90;98661.56;4953349;28;124457;-75
2022/11/08 00:27:16;;;;;;;8.83;2.87;;;13.40;88.80;;;13.79;55.04;98663.06;4951333;28;123345;-76
2022/11/08 00:29:42;;;;;;;4.40;3.40;;;13.40;89.00;;;13.79;54.78;98668.63;4946791;28;114567;-76
2022/11/08 00:32:17;;;;;;;5.30;3.60;;;13.40;89.70;;;13.78;55.06;98663.38;4970479;28;112875;-75
2022/11/08 00:34:44;;;;;;;4.13;2.83;;;13.30;89.10;;;13.73;55.29;98652.47;4951955;28;123342;-76
2022/11/08 00:37:11;;;;;;;5.37;3.37;;;13.30;89.20;;;13.70;55.41;98656.72;4969895;28;123211;-76
2022/11/08 00:39:37;;;;;;;4.20;2.80;;;13.30;89.30;;;13.69;55.50;98653.16;4968583;28;115669;-76
2022/11/08 00:42:04;;;;;;;4.57;3.17;;;13.30;89.40;;;13.68;55.55;98657.09;4966342;28;114021;-76
2022/11/08 00:44:30;;;;;;;4.03;3.20;;;13.30;89.50;;;13.65;55.70;98646.66;4966865;28;123065;-76
2022/11/08 00:46:57;;;;;;;6.03;3.37;;;13.20;89.40;;;13.64;55.60;98653.34;4983873;28;123156;-75
2022/11/08 00:49:27;;;;;;;6.03;3.00;;;13.20;89.60;;;13.61;55.64;98654.03;4964794;28;113793;-77
2022/11/08 00:51:53;;;;;;;4.67;3.33;;;13.20;89.60;;;13.59;55.84;98652.72;5000035;28;114483;-76
2022/11/08 00:54:20;;;;;;;6.90;3.60;;;13.20;89.70;;;13.57;55.74;98650.31;4966589;28;124178;-74
2022/11/08 00:56:48;;;;;;;4.80;3.43;;;13.20;89.90;;;13.54;55.88;98650.13;4968667;28;123602;-75
2022/11/08 00:59:18;;;;;;;7.53;3.33;;;13.10;89.80;;;13.52;55.88;98647.72;4951898;28;114983;-75
2022/11/08 01:01:46;;;;;;;6.03;3.20;;;13.10;89.90;;;13.49;56.02;98637.28;4961487;28;113860;-76
2022/11/08 01:04:16;;;;;;;4.47;3.20;;;13.10;90.00;;;13.46;56.04;98640.75;4967404;28;123594;-74
2022/11/08 01:06:43;;;;;;;4.67;3.40;;;13.10;90.00;;;13.44;56.12;98641.06;4968343;28;123642;-75
2022/11/08 01:09:10;;;;;;;4.40;2.93;;;13.00;90.00;;;13.42;56.23;98637.00;4966846;28;115487;-75
2022/11/08 01:11:37;;;;;;;7.17;3.50;;;13.00;90.00;;;13.40;56.19;98625.41;4971097;28;115650;-75
2022/11/08 01:14:04;;;;;;;6.40;3.10;;;13.10;90.10;;;13.39;56.51;98634.91;4966326;28;124092;-75
2022/11/08 01:16:32;;;;;;;5.83;2.80;;;13.00;90.10;;;13.35;56.32;98639.47;4968136;28;124189;-75
2022/11/08 01:19:00;;;;;;;5.50;3.40;;;13.00;90.10;;;13.32;56.41;98632.63;4967918;28;114584;-75
2022/11/08 01:21:27;;;;;;;3.43;2.63;;;12.90;90.10;;;13.31;56.28;98630.22;4971920;28;113977;-75
2022/11/08 01:23:55;;;;;;;4.80;2.93;;;12.90;90.10;;;13.27;56.36;98627.28;4968379;28;124189;-76
2022/11/08 01:26:27;;;;;;;2.77;2.17;;;12.90;90.20;;;13.25;56.49;98626.78;4968290;28;123776;-76
2022/11/08 01:28:54;;;;;;;4.07;2.77;;;12.80;90.10;;;13.20;56.57;98619.47;4970130;28;113062;-76
2022/11/08 01:31:26;;;;;;;5.77;3.20;;;12.80;90.20;;;13.17;56.66;98620.13;5000856;28;113766;-77
2022/11/08 01:33:53;;;;;;;4.60;2.90;;;12.80;90.20;;;13.14;56.73;98625.53;4968051;28;123796;-76
2022/11/08 01:36:23;;;;;;;4.70;3.63;;;12.80;90.30;;;13.11;56.63;98627.03;4966778;28;123647;-77
2022/11/08 01:38:50;;;;;;;3.90;2.40;;;12.70;90.30;;;13.08;56.88;98627.66;4969769;28;113627;-75
2022/11/08 01:41:20;;;;;;;8.90;3.47;;;12.70;90.30;;;13.06;56.89;98618.88;4984301;28;112060;-75
2022/11/08 01:43:57;;;;;;;4.87;3.00;;;12.60;90.30;;;13.02;56.81;98626.22;4981097;28;123750;-75
2022/11/08 01:46:43;;;;;;;4.87;3.10;;;12.60;90.30;;;12.97;57.03;98610.56;4969271;28;123832;-76
2022/11/08 01:49:25;;;;;;;8.10;4.73;;;12.60;90.30;;;12.95;57.00;98601.81;4968566;28;114293;-75
2022/11/08 01:52:18;;;;;;;5.60;3.40;;;12.50;90.30;;;12.95;57.16;98606.50;4970099;28;113748;-75
2022/11/08 01:55:00;;;;;;;5.70;3.27;;;12.50;90.40;;;12.90;57.17;98599.22;4970707;28;125097;-76
2022/11/08 01:57:52;;;;;;;3.67;2.70;;;12.50;90.40;;;12.89;57.04;98599.53;4965779;28;123230;-76
2022/11/08 02:00:19;;;;;;;6.73;3.23;;;12.50;90.40;;;12.86;57.02;98591.88;4971101;28;114310;-75
2022/11/08 02:02:54;;;;;;;6.20;3.40;;;12.40;90.40;;;12.84;57.28;98578.34;4967516;28;114840;-76
2022/11/08 02:05:24;;;;;;;10.20;3.50;;;12.40;90.40;;;12.80;57.48;98572.66;4968234;28;123836;-75
2022/11/08 02:08:14;;;;;;;6.57;3.60;;;12.40;90.50;;;12.76;57.10;98570.88;4968542;28;124011;-75
2022/11/08 02:10:43;;;;;;;4.07;3.40;;;12.40;90.50;;;12.71;57.21;98571.09;4967367;28;114186;-75
2022/11/08 02:13:31;;;;;;;3.67;2.87;;;12.30;90.50;;;12.69;57.58;98576.94;4966458;28;113941;-75
2022/11/08 02:15:58;;;;;;;5.50;3.60;;;12.30;90.50;;;12.66;57.68;98572.06;4968246;28;123629;-75
2022/11/08 02:18:29;;;;;;;5.03;3.23;;;12.30;90.60;;;12.65;58.04;98562.09;4966878;28;123922;-75
2022/11/08 02:21:39;;;;;;;6.00;3.30;;;12.20;90.60;;;12.63;57.67;98561.66;4969407;28;113543;-75
2022/11/08 02:24:11;;;;;;;6.20;3.60;;;12.20;90.70;;;12.61;57.86;98558.38;4987457;28;113348;-76
2022/11/08 02:26:37;;;;;;;4.73;3.40;;;12.30;90.70;;;12.58;57.88;98553.50;4966548;28;123908;-75
2022/11/08 02:29:30;;;;;;;5.10;3.13;;;12.20;90.70;;;12.56;57.75;98548.28;4968183;28;124250;-75
2022/11/08 02:31:59;;;;;;;4.03;3.00;;;12.20;90.80;;;12.55;57.93;98554.19;4970828;28;113636;-75
2022/11/08 02:34:44;;;;;;;5.13;3.57;;;12.20;90.80;;;12.54;57.62;98547.81;4966835;28;114203;-75
2022/11/08 02:37:14;;;;;;;4.60;3.10;;;12.10;90.80;;;12.52;57.89;98549.28;4966542;28;123914;-75
2022/11/08 02:39:41;;;;;;;10.60;4.33;;;12.10;90.80;;;12.52;57.99;98538.19;4969768;28;123755;-74
2022/11/08 02:42:17;;;;;;;7.93;3.23;;;12.10;90.80;;;12.49;58.03;98544.41;4972292;28;113658;-75
2022/11/08 02:44:45;;;;;;;6.20;4.37;;;12.10;90.80;;;12.44;57.94;98536.25;4971287;28;113962;-75
2022/11/08 02:47:12;;;;;;;4.27;3.17;;;12.00;90.80;;;12.40;58.21;98540.84;4968894;28;124093;-75
2022/11/08 02:49:38;;;;;;;8.33;4.40;;;12.00;90.90;;;12.38;58.33;98539.25;4965216;28;123759;-75
2022/11/08 02:52:05;;;;;;;5.33;3.30;;;12.10;90.90;;;12.35;58.25;98528.00;4970494;28;115087;-77
2022/11/08 02:54:32;;;;;;;4.40;3.00;;;12.00;90.90;;;12.35;58.10;98530.75;4999151;28;115100;-76
2022/11/08 02:56:58;;;;;;;6.03;3.00;;;11.90;90.90;;;12.32;58.21;98529.47;4966828;28;124003;-75
2022/11/08 02:59:25;;;;;;;6.50;4.00;;;11.90;91.00;;;12.29;58.42;98527.34;4966894;28;124491;-75
2022/11/08 03:01:51;;;;;;;3.90;2.90;;;12.30;91.20;;;12.28;58.50;98517.44;4968752;28;113387;-75
2022/11/08 03:04:18;;;;;;;3.70;2.90;;;11.90;91.00;;;12.26;58.67;98530.00;4986432;28;113613;-76
2022/11/08 03:06:44;;;;;;;6.80;3.30;;;11.90;91.10;;;12.24;58.59;98516.47;4960025;28;124393;-75
2022/11/08 03:09:11;;;;;;;4.20;3.03;;;11.80;91.10;;;12.23;58.58;98519.56;4959262;28;123873;-74
2022/11/08 03:11:37;;;;;;;10.70;4.30;;;11.80;91.10;;;12.22;58.27;98524.28;4965706;28;114578;-74
2022/11/08 03:14:04;;;;;;;5.00;3.43;;;11.80;91.10;;;12.20;58.52;98528.50;4966924;28;113341;-73
2022/11/08 03:16:31;;;;;;;5.67;3.43;;;11.80;91.10;;;12.18;58.58;98525.28;4966178;28;124432;-75
2022/11/08 03:18:57;;;;;;;4.30;3.40;;;11.80;91.10;;;12.16;58.57;98520.88;4968467;28;122641;-74
2022/11/08 03:21:24;;;;;;;4.73;3.20;;;11.80;91.20;;;12.16;58.42;98522.84;4967983;28;113480;-74
2022/11/08 03:23:50;;;;;;;5.03;3.40;;;11.80;91.20;;;12.15;58.58;98512.91;4969876;28;113806;-74
2022/11/08 03:26:17;;;;;;;6.63;3.13;;;11.70;91.10;;;12.12;58.57;98521.88;4981082;28;123365;-74
2022/11/08 03:28:43;;;;;;;5.03;3.53;;;11.70;91.20;;;12.12;58.61;98527.41;4965490;28;123715;-75
2022/11/08 03:31:10;;;;;;;7.03;4.57;;;11.70;91.20;;;12.10;58.91;98522.19;4966870;28;114396;-74
2022/11/08 03:33:36;;;;;;;4.23;2.90;;;11.70;91.20;;;12.09;58.79;98516.97;4969300;28;113298;-73
2022/11/08 03:36:03;;;;;;;4.47;2.77;;;11.70;91.20;;;12.09;58.63;98523.34;4965936;28;123880;-74
2022/11/08 03:38:30;;;;;;;4.43;3.10;;;11.60;91.20;;;12.08;59.05;98518.13;4968699;28;123584;-74
2022/11/08 03:40:56;;;;;;;3.60;3.00;;;11.60;91.30;;;12.08;58.84;98526.44;4967914;28;115284;-74
2022/11/08 03:43:22;;;;;;;7.63;2.97;;;11.70;91.30;;;12.06;58.84;98517.63;4967717;28;114946;-74
2022/11/08 03:45:49;;;;;;;3.00;2.70;;;11.60;91.30;;;12.05;58.78;98518.78;4969541;28;124318;-76
2022/11/08 03:48:15;;;;;;;4.07;2.77;;;11.60;91.30;;;12.03;58.81;98527.41;4998570;28;123877;-74
2022/11/08 03:50:42;;;;;;;4.63;3.00;;;11.60;91.40;;;12.04;58.98;98531.84;4966980;28;114244;-74
2022/11/08 03:53:08;;;;;;;2.90;2.43;;;11.60;91.40;;;12.03;59.02;98530.19;4992265;28;113675;-74
2022/11/08 03:55:35;;;;;;;4.60;2.70;;;11.60;91.40;;;12.03;58.93;98516.34;4966426;28;124118;-74
2022/11/08 03:58:01;;;;;;;4.83;3.50;;;11.60;91.40;;;12.03;59.18;98526.59;4983147;28;122744;-75
2022/11/08 04:00:28;;;;;;;4.53;3.50;;;11.60;91.40;;;12.01;59.03;98523.34;4967308;28;114260;-75
2022/11/08 04:03:08;;;;;;;3.30;2.57;;;11.60;91.50;;;12.00;59.36;98528.06;4969207;28;111904;-75
2022/11/08 04:05:34;;;;;;;7.27;3.43;;;11.60;91.50;;;11.98;59.05;98529.53;4961245;28;124685;-75
2022/11/08 04:08:04;;;;;;;5.00;3.10;;;11.50;91.40;;;11.98;59.21;98526.78;4965305;28;123842;-75
2022/11/08 04:10:30;;;;;;;4.47;2.60;;;11.50;91.50;;;11.96;59.18;98527.13;4966083;28;113510;-75
2022/11/08 04:15:52;;;;;;;3.00;2.60;;;11.60;91.50;;;11.93;59.37;98530.56;4968202;28;124602;-75
2022/11/08 04:21:18;;;;;;;3.60;2.67;;;11.50;91.50;;;11.89;59.17;98519.31;4968598;28;114793;-75
2022/11/08 04:23:46;;;;;;;6.30;3.50;;;11.50;91.50;;;11.87;58.65;98509.69;4962867;28;116988;-75
2022/11/08 04:26:13;;;;;;;5.00;2.60;;;11.40;91.50;;;11.85;59.10;98515.53;4955387;28;123713;-75
2022/11/08 04:28:41;;;;;;;4.00;3.17;;;11.40;91.50;;;11.86;58.87;98516.38;4964237;28;123704;-75
2022/11/08 04:31:17;;;;;;;4.30;3.00;;;11.40;91.40;;;11.85;59.18;98515.53;4965022;28;115223;-75
2022/11/08 04:33:44;;;;;;;3.60;2.80;;;11.40;91.40;;;11.83;59.02;98515.06;4984301;28;113927;-75
2022/11/08 04:36:15;;;;;;;2.97;2.60;;;11.40;91.50;;;11.83;59.08;98508.72;4966491;28;124218;-74
2022/11/08 04:38:42;;;;;;;4.33;3.10;;;11.40;91.50;;;11.82;59.44;98505.13;4966374;28;123916;-75
2022/11/08 04:41:14;;;;;;;6.60;2.60;;;11.40;91.50;;;11.83;59.25;98506.75;4950686;28;113758;-75
2022/11/08 04:43:41;;;;;;;6.43;2.87;;;11.40;91.50;;;11.82;58.82;98499.59;4964054;28;114439;-75
2022/11/08 04:46:15;;;;;;;2.20;2.00;;;11.50;91.50;;;11.81;58.59;98503.50;4967857;28;122330;-75
2022/11/08 04:48:43;;;;;;;3.60;2.00;;;11.30;91.40;;;11.82;59.12;98494.06;4967150;28;123634;-76
2022/11/08 04:51:18;;;;;;;8.13;2.20;;;11.30;91.40;;;11.82;58.55;98491.28;4964297;28;114266;-74
2022/11/08 04:53:45;;;;;;;3.30;2.17;;;11.40;91.40;;;11.80;58.75;98482.50;4997738;28;114332;-75
2022/11/08 04:56:18;;;;;;;6.30;2.40;;;11.40;91.40;;;11.81;58.62;98481.34;4964469;28;123981;-75
2022/11/08 04:58:48;;;;;;;3.83;2.30;;;11.30;91.40;;;11.81;58.75;98475.81;4956475;28;124021;-75
2022/11/08 05:01:22;;;;;;;4.20;2.23;;;11.40;91.30;;;11.83;58.90;98476.31;4967889;28;112894;-76
2022/11/08 05:03:53;;;;;;;4.07;2.70;;;11.40;91.30;;;11.84;58.83;98475.16;4952518;28;114112;-75
2022/11/08 05:06:23;;;;;;;4.87;2.33;;;12.10;91.60;;;11.84;58.81;98464.06;4984290;28;122418;-75
2022/11/08 05:08:52;;;;;;;4.80;2.30;;;11.40;91.30;;;11.84;58.64;98468.81;4963752;28;124408;-75
2022/11/08 05:11:22;;;;;;;5.20;2.63;;;11.50;91.30;;;11.82;58.41;98460.84;4966455;28;114367;-75
2022/11/08 05:13:50;;;;;;;5.70;2.60;;;11.50;91.30;;;11.82;58.48;98460.00;4966001;28;114091;-75
2022/11/08 05:16:29;;;;;;;4.63;2.47;;;11.40;91.30;;;11.82;58.66;98460.84;4998226;28;124052;-75
2022/11/08 05:18:56;;;;;;;4.20;2.37;;;11.40;91.30;;;11.81;58.66;98459.19;4967690;28;124015;-75
2022/11/08 05:24:13;;;;;;;7.07;2.83;;;11.40;91.20;;;11.78;58.73;98459.88;4971521;28;115563;-76
2022/11/08 05:26:44;;;;;;;4.30;2.60;;;11.40;91.60;;;11.77;58.51;98462.94;4967428;28;124006;-76
2022/11/08 05:29:12;;;;;;;3.30;2.47;;;11.40;91.30;;;11.75;58.47;98468.03;4967276;28;123791;-75
2022/11/08 05:31:39;;;;;;;5.00;2.20;;;11.40;91.30;;;11.77;58.39;98465.72;4969065;28;114342;-75
2022/11/08 05:34:06;;;;;;;2.97;2.00;;;11.30;91.20;;;11.77;58.34;98469.31;4969258;28;113906;-75
2022/11/08 05:36:34;;;;;;;2.77;2.40;;;11.60;91.40;;;11.76;58.64;98462.13;4999597;28;123535;-75
2022/11/08 05:39:00;;;;;;;3.17;2.17;;;11.30;91.20;;;11.75;58.45;98463.28;4995078;28;123826;-75
2022/11/08 05:41:27;;;;;;;2.23;1.93;;;11.30;91.20;;;11.77;58.57;98461.00;4969505;28;114523;-76
2022/11/08 05:43:54;;;;;;;4.90;2.40;;;11.30;91.20;;;11.76;58.25;98462.13;4970215;28;114266;-75
2022/11/08 05:46:22;;;;;;;3.67;2.03;;;11.30;91.20;;;11.76;58.38;98462.13;4968174;28;122282;-76
2022/11/08 05:48:49;;;;;;;2.93;2.20;;;11.30;91.20;;;11.73;58.28;98462.81;4967327;28;123726;-75
2022/11/08 05:51:17;;;;;;;6.57;2.27;;;11.40;91.30;;;11.74;58.23;98464.44;4966917;28;113980;-75
2022/11/08 05:53:45;;;;;;;5.23;2.57;;;11.30;91.20;;;11.75;58.23;98460.53;4968023;28;114027;-75
2022/11/08 05:56:12;;;;;;;4.17;2.13;;;11.30;91.20;;;11.75;58.28;98451.41;4967501;28;124157;-76
2022/11/08 05:58:38;;;;;;;4.00;2.40;;;11.30;91.20;;;11.75;58.24;98454.19;4968159;28;124274;-75
2022/11/08 06:01:10;;;;;;;2.53;2.17;;;11.30;91.20;;;11.75;58.10;98460.53;4953779;28;113960;-75
2022/11/08 06:03:37;;;;;;;6.47;2.17;;;11.30;91.20;;;11.76;58.23;98462.13;4964660;28;114228;-75
2022/11/08 06:06:15;;;;;;;2.87;2.30;;;11.30;91.20;;;11.78;58.34;98454.31;4968361;28;124769;-75
2022/11/08 06:08:42;;;;;;;3.43;2.30;;;11.30;91.20;;;11.79;58.25;98455.94;4960711;28;122909;-76
2022/11/08 06:11:15;;;;;;;4.30;2.80;;;11.30;91.10;;;11.81;57.98;98453.66;4956555;28;115037;-75
2022/11/08 06:13:42;;;;;;;3.47;2.30;;;11.30;91.10;;;11.80;58.25;98454.00;4964813;28;115595;-75
2022/11/08 06:16:12;;;;;;;3.83;2.23;;;11.30;91.10;;;11.79;57.90;98453.16;4991860;28;123974;-75
2022/11/08 06:18:38;;;;;;;5.00;2.33;;;11.30;91.10;;;11.79;57.81;98455.94;4968969;28;124334;-76
2022/11/08 06:21:13;;;;;;;6.17;2.80;;;11.30;91.10;;;11.80;57.99;98452.06;4958223;28;114270;-76
2022/11/08 06:23:40;;;;;;;4.03;2.23;;;11.30;91.10;;;11.79;58.21;98455.13;4962298;28;114635;-77
2022/11/08 06:26:07;;;;;;;5.00;2.30;;;11.30;91.10;;;11.77;58.07;98444.41;4996467;28;124541;-77
2022/11/08 06:28:34;;;;;;;4.50;2.47;;;11.30;91.10;;;11.77;58.03;98447.19;4966780;28;123799;-76
2022/11/08 06:31:03;;;;;;;3.10;2.23;;;11.30;91.10;;;11.77;58.25;98447.19;4964383;28;114024;-76
2022/11/08 06:33:30;;;;;;;6.63;2.70;;;11.30;91.10;;;11.81;58.40;98447.31;4962144;28;114682;-77
2022/11/08 06:35:56;;;;;;;3.90;2.40;;;11.30;91.10;;;11.82;58.20;98455.31;4964078;28;124077;-78
2022/11/08 06:38:23;;;;;;;5.13;2.20;;;11.70;91.30;;;11.83;58.25;98456.94;4956592;28;124263;-77
2022/11/08 06:40:50;;;;;;;4.63;2.40;;;11.30;91.10;;;11.84;58.21;98454.97;4974015;28;114745;-77
2022/11/08 06:43:16;;;;;;;2.40;1.90;;;11.30;91.20;;;11.86;58.43;98458.25;4964301;28;114305;-76
2022/11/08 06:45:43;;;;;;;4.03;2.47;;;11.30;91.20;;;11.87;58.25;98457.91;4997927;28;124882;-76
2022/11/08 06:48:09;;;;;;;2.70;2.00;;;11.40;91.20;;;11.90;58.12;98450.91;4952880;28;123896;-77
2022/11/08 06:50:36;;;;;;;8.13;2.50;;;11.40;91.20;;;11.93;58.16;98456.59;4964335;28;114326;-76
2022/11/08 06:53:06;;;;;;;4.97;2.60;;;11.40;91.20;;;11.94;57.89;98455.44;4983312;28;113682;-76
2022/11/08 06:55:34;;;;;;;4.03;2.90;;;11.40;91.20;;;11.97;58.06;98455.94;4953385;28;122812;-76
2022/11/08 06:58:01;;;;;;;5.10;2.80;;;11.40;91.10;;;11.99;58.00;98453.66;4983851;28;124205;-77
2022/11/08 07:00:28;;;;;;;4.33;2.70;;;11.60;91.20;;;11.99;57.75;98454.47;4954176;28;115020;-76
2022/11/08 07:02:59;;;;;;;4.40;2.77;;;11.40;91.00;;;12.01;57.75;98451.34;4965378;28;113907;-76
2022/11/08 07:05:28;;;;;;;12.70;4.00;;;11.50;91.10;;;12.00;57.88;98456.09;4980784;28;123424;-78
2022/11/08 07:07:57;;;;;;;9.40;4.40;;;11.50;91.10;;;11.97;57.90;98450.41;4986010;28;123804;-75
2022/11/08 07:10:28;;;;;;;7.03;2.93;;;11.40;91.00;;;11.97;57.78;98444.88;4962466;28;114434;-75
2022/11/08 07:13:08;;;;;;;4.13;2.67;;;11.40;91.10;;;11.95;57.71;98456.25;4963680;28;113959;-75
2022/11/08 07:15:36;;;;;;;4.00;2.53;;;11.40;91.00;;;11.91;57.74;98464.44;4957862;28;123251;-76
2022/11/08 07:18:14;;;;;;;4.30;2.60;;;11.60;91.10;;;11.91;57.61;98464.44;4954713;28;123762;-76
2022/11/08 07:20:41;;;;;;;4.10;2.40;;;11.40;91.00;;;11.89;57.51;98471.44;4961824;28;113994;-75
2022/11/08 07:23:10;;;;;;;2.90;2.20;;;11.40;91.00;;;11.87;57.87;98468.97;4951719;28;113694;-75
2022/11/08 07:25:37;;;;;;;7.23;2.13;;;11.40;91.00;;;11.89;57.97;98469.47;4963265;28;123916;-76
2022/11/08 07:28:07;;;;;;;3.10;2.17;;;11.40;91.00;;;11.90;57.71;98476.66;4976027;28;123415;-75
2022/11/08 07:30:34;;;;;;;3.53;2.80;;;11.70;91.10;;;11.88;57.86;98481.69;4963124;28;114244;-75
2022/11/08 07:33:01;;;;;;;4.60;2.77;;;11.40;91.00;;;11.90;57.79;98468.34;4967778;28;114631;-75
2022/11/08 07:35:28;;;;;;;3.83;2.57;;;11.40;90.90;;;11.91;58.06;98474.69;4966443;28;124136;-75
2022/11/08 07:37:55;;;;;;;3.00;1.97;;;11.40;91.20;;;11.94;57.55;98477.59;4967031;28;124061;-75
2022/11/08 07:40:22;;;;;;;3.40;2.40;;;11.40;90.90;;;11.99;57.81;98470.28;4967008;28;114357;-79
2022/11/08 07:42:49;;;;;;;3.20;2.30;;;11.40;90.90;;;12.02;57.38;98475.97;4957429;28;113567;-77
2022/11/08 07:45:16;;;;;;;3.40;2.20;;;11.50;90.90;;;12.04;57.65;98470.91;4967250;28;124037;-76
2022/11/08 07:47:42;;;;;;;2.57;2.10;;;11.50;90.90;;;12.08;57.43;98468.28;4999653;28;124557;-76
2022/11/08 07:50:09;;;;;;;2.47;2.00;;;11.60;90.90;;;12.09;57.14;98476.28;4966299;28;115005;-76
2022/11/08 07:52:36;;;;;;;3.43;2.20;;;11.60;90.80;;;12.13;57.13;98466.16;4969626;28;114828;-76
2022/11/08 07:55:03;;;;;;;3.03;1.77;;;11.60;90.80;;;12.14;57.39;98450.34;4967470;28;124766;-76
2022/11/08 07:57:29;;;;;;;4.47;2.37;;;11.60;90.80;;;12.18;57.26;98420.84;4967413;28;122887;-76
2022/11/08 07:59:55;;;;;;;6.20;2.73;;;11.70;90.80;;;12.24;57.16;98419.50;4966632;28;114155;-76
2022/11/08 08:02:22;;;;;;;4.73;2.90;;;11.70;90.80;;;12.33;57.04;98412.00;4965510;28;114205;-75
2022/11/08 08:04:49;;;;;;;11.47;3.20;;;11.80;90.80;;;12.37;57.21;98403.81;4997155;28;124294;-76
2022/11/08 08:07:15;;;;;;;9.70;4.20;;;11.80;90.80;;;12.36;56.92;98418.81;4968705;28;123809;-80
2022/11/08 08:09:42;;;;;;;5.43;4.13;;;11.80;90.80;;;12.28;56.72;98406.63;4997839;28;114266;-75
2022/11/08 08:12:08;;;;;;;9.53;3.80;;;11.70;90.70;;;12.20;56.60;98413.03;4966401;28;113952;-76
2022/11/08 08:14:35;;;;;;;9.53;3.90;;;11.60;90.60;;;12.13;56.79;98415.50;4965689;28;124195;-78
2022/11/08 08:17:02;;;;;;;7.47;3.70;;;11.50;90.70;;;12.13;57.16;98434.88;4967358;28;124057;-76
2022/11/08 08:19:28;;;;;;;6.07;3.77;;;11.60;90.80;;;12.21;56.99;98438.75;4997733;28;114263;-78
2022/11/08 08:21:55;;;;;;;7.93;3.50;;;11.70;90.90;;;12.30;57.14;98442.28;4964031;28;114058;-76
2022/11/08 08:24:21;;;;;;;4.20;3.43;;;11.70;90.90;;;12.40;57.10;98441.94;4959771;28;124066;-76
2022/11/08 08:26:48;;;;;;;5.60;3.93;;;11.80;90.90;;;12.51;56.84;98447.91;4956594;28;124004;-76
2022/11/08 08:29:14;;;;;;;8.87;4.23;;;11.90;90.90;;;12.59;56.43;98447.03;4982258;28;113153;-78
2022/11/08 08:31:41;;;;;;;4.40;3.10;;;12.00;90.80;;;12.67;56.57;98460.03;4966780;28;114170;-76
2022/11/08 08:34:07;;;;;;;4.40;2.90;;;12.00;90.70;;;12.71;56.29;98463.78;4966236;28;123899;-76
2022/11/08 08:36:34;;;;;;;3.93;2.17;;;12.10;90.70;;;12.77;56.21;98462.44;4983006;28;123160;-75
2022/11/08 08:39:00;;;;;;;3.50;1.90;;;12.20;90.60;;;12.83;55.47;98452.75;4967570;28;115772;-77
2022/11/08 08:41:26;;;;;;;3.10;2.10;;;12.20;90.30;;;12.88;55.45;98451.75;4958555;28;114932;-76
2022/11/08 08:43:54;;;;;;;3.30;1.80;;;12.30;90.30;;;12.98;55.28;98453.34;4966922;28;124978;-75
2022/11/08 08:46:20;;;;;;;3.20;1.90;;;12.30;90.10;;;13.06;55.27;98452.47;4964684;28;124269;-75
2022/11/08 08:48:47;;;;;;;4.80;2.33;;;12.50;90.20;;;13.17;55.12;98453.69;4965803;28;114742;-76
2022/11/08 08:51:13;;;;;;;3.33;2.10;;;12.50;90.00;;;13.25;54.78;98444.47;4965826;28;114047;-74
2022/11/08 08:53:40;;;;;;;2.80;1.87;;;12.60;90.00;;;13.33;54.60;98451.16;4980298;28;123943;-76
2022/11/08 08:56:07;;;;;;;4.30;1.87;;;12.70;90.00;;;13.42;54.56;98445.50;4981561;28;124544;-75
2022/11/08 08:58:34;;;;;;;2.73;1.90;;;12.80;89.70;;;13.49;54.19;98459.66;4972273;28;113984;-77
2022/11/08 09:01:03;;;;;;;4.13;1.97;;;12.90;89.60;;;13.54;54.27;98456.69;4968395;28;113934;-75
2022/11/08 09:03:30;;;;;;;3.00;2.27;;;12.90;89.50;;;13.63;54.03;98448.25;4968185;28;123992;-77
2022/11/08 09:05:58;;;;;;;3.97;2.33;;;13.00;89.40;;;13.72;53.69;98450.94;4970709;28;123722;-76
2022/11/08 09:08:25;;;;;;;2.80;1.70;;;13.20;89.30;;;13.80;53.76;98458.38;4971026;28;114182;-76
2022/11/08 09:10:57;;;;;;;3.03;1.93;;;13.10;89.00;;;13.89;53.43;98456.34;4967146;28;114437;-77
2022/11/08 09:13:25;;;;;;;7.77;2.83;;;13.20;88.90;;;13.95;53.76;98454.97;4970039;28;122694;-79
2022/11/08 09:15:53;;;;;;;4.60;2.23;;;13.30;89.20;;;14.03;53.47;98454.06;4967791;28;123910;-77
2022/11/08 09:18:20;;;;;;;3.50;2.17;;;13.40;89.20;;;14.11;53.69;98464.25;4972184;28;114895;-78
2022/11/08 09:20:47;;;;;;;4.07;1.93;;;13.40;89.40;;;14.19;53.50;98456.19;4969111;28;114632;-77
2022/11/08 09:23:16;;;;;;;3.13;2.10;;;13.50;89.20;;;14.25;53.63;98461.16;4968987;28;124105;-76
2022/11/08 09:25:42;;;;;;;3.80;2.10;;;13.60;89.20;;;14.33;53.16;98464.97;4966522;28;123877;-76
2022/11/08 09:28:09;;;;;;;3.67;1.83;;;13.60;89.00;;;14.37;52.94;98457.56;4953853;28;114482;-76
2022/11/08 09:30:35;;;;;;;3.43;1.90;;;13.70;88.80;;;14.43;53.01;98464.53;4971892;28;114824;-76
2022/11/08 09:33:02;;;;;;;3.30;2.03;;;13.80;88.70;;;14.48;52.88;98469.88;4983361;28;123887;-75
2022/11/08 09:35:29;;;;;;;1.90;1.57;;;13.80;88.40;;;14.54;52.81;98464.94;4959346;28;123857;-75
2022/11/08 09:37:57;;;;;;;2.80;1.80;;;13.90;88.20;;;14.57;52.46;98476.16;4968915;28;114196;-75
2022/11/08 09:40:40;;;;;;;1.70;1.60;;;13.90;88.00;;;14.65;52.20;98465.28;4970307;28;114231;-76
2022/11/08 09:43:33;;;;;;;4.53;2.50;;;14.00;87.90;;;14.68;52.11;98468.16;4968666;28;124798;-75
2022/11/08 09:45:59;;;;;;;9.47;3.20;;;14.10;87.70;;;14.71;52.16;98466.66;4969186;28;124080;-75
2022/11/08 09:48:33;;;;;;;8.57;4.43;;;14.10;87.70;;;14.71;51.88;98472.22;4966745;28;114668;-75
2022/11/08 09:51:09;;;;;;;8.63;4.47;;;14.10;87.30;;;14.67;51.84;98465.72;4967224;28;114133;-74
2022/11/08 09:53:57;;;;;;;10.33;4.87;;;14.10;87.90;;;14.66;51.94;98466.88;4966339;28;123824;-75
2022/11/08 09:56:34;;;;;;;11.93;5.40;;;14.10;87.40;;;14.64;52.10;98467.25;4966420;28;123623;-75
2022/11/08 09:59:17;;;;;;;7.87;5.27;;;14.00;87.20;;;14.65;52.15;98473.63;4966854;28;114295;-74
2022/11/08 10:01:43;;;;;;;18.27;4.60;;;14.00;87.20;;;14.66;52.43;98470.47;4967875;28;113854;-75
2022/11/08 10:04:21;;;;;;;10.73;5.27;;;14.10;87.60;;;14.70;52.51;98473.38;4962329;28;123943;-75
2022/11/08 10:07:16;;;;;;;5.33;3.50;;;14.20;87.70;;;14.80;54.25;98462.59;4969186;28;123233;-79
2022/11/08 10:10:13;;;;;;;5.80;3.97;;;14.20;89.60;;;14.90;53.84;98466.06;4967349;28;114360;-76
2022/11/08 10:13:31;;;;;;;7.30;4.10;;;14.30;89.40;;;14.99;53.42;98463.94;4967830;28;115045;-75
2022/11/08 10:16:17;;;;;;;10.47;4.20;;;14.40;89.00;;;15.05;52.59;98465.34;4937146;28;123736;-75
2022/11/08 10:19:17;;;;;;;8.50;3.90;;;14.50;88.40;;;15.10;52.47;98465.13;4966192;28;124409;-77
2022/11/08 10:22:18;;;;;;;8.00;4.20;;;14.50;88.10;;;15.17;52.32;98458.94;4979195;28;114201;-77
2022/11/08 10:25:00;;;;;;;6.97;3.90;;;14.60;88.00;;;15.24;52.47;98461.94;4967405;28;114944;-78
2022/11/08 10:27:36;;;;;;;8.60;4.00;;;14.80;87.90;;;15.30;52.04;98456.94;4967111;28;124118;-76
2022/11/08 10:30:23;;;;;;;13.93;4.60;;;14.70;87.70;;;15.36;51.91;98450.75;4966252;28;123855;-76
2022/11/08 10:32:54;;;;;;;6.90;3.40;;;14.80;87.70;;;15.42;51.38;98442.97;4967554;28;114585;-76
2022/11/08 10:35:29;;;;;;;5.60;2.93;;;14.80;87.10;;;15.48;51.07;98440.78;4966494;28;113301;-76
2022/11/08 10:37:58;;;;;;;3.70;2.53;;;14.90;86.60;;;15.51;49.99;98438.09;4967276;28;124000;-76
2022/11/08 10:40:40;;;;;;;7.00;2.97;;;14.90;85.40;;;15.58;49.88;98434.69;4964776;28;124022;-76
2022/11/08 10:43:15;;;;;;;5.93;3.00;;;15.00;85.40;;;15.64;49.65;98428.50;4956709;28;114610;-76